sensor_id;sensor_type;location;lat;lon;timestamp;P1;durP1;ratioP1;P2;durP2;ratioP2
40849;SDS011;26571;41.610;25.380;2023-05-20T00:01:18;8.38;;;7.55;;
40849;SDS011;26571;41.610;25.380;2023-05-20T00:03:44;9.95;;;7.82;;
40849;SDS011;26571;41.610;25.380;2023-05-20T00:06:10;7.90;;;7.18;;
40849;SDS011;26571;41.610;25.380;2023-05-20T00:08:35;10.55;;;8.00;;
40849;SDS011;26571;41.610;25.380;2023-05-20T00:11:01;8.40;;;7.55;;
40849;SDS011;26571;41.610;25.380;2023-05-20T00:13:26;8.10;;;7.38;;
40849;SDS011;26571;41.610;25.380;2023-05-20T00:15:51;8.25;;;7.43;;
40849;SDS011;26571;41.610;25.380;2023-05-20T00:18:17;8.48;;;7.55;;
40849;SDS011;26571;41.610;25.380;2023-05-20T00:20:43;8.63;;;6.90;;
40849;SDS011;26571;41.610;25.380;2023-05-20T00:23:08;8.18;;;7.15;;
40849;SDS011;26571;41.610;25.380;2023-05-20T00:25:34;8.27;;;7.30;;
40849;SDS011;26571;41.610;25.380;2023-05-20T00:27:59;10.52;;;7.43;;
40849;SDS011;26571;41.610;25.380;2023-05-20T00:30:25;11.02;;;8.00;;
40849;SDS011;26571;41.610;25.380;2023-05-20T00:32:50;11.68;;;7.13;;
40849;SDS011;26571;41.610;25.380;2023-05-20T00:35:15;7.22;;;6.68;;
40849;SDS011;26571;41.610;25.380;2023-05-20T00:37:41;7.75;;;7.05;;
40849;SDS011;26571;41.610;25.380;2023-05-20T00:40:07;8.10;;;7.07;;
40849;SDS011;26571;41.610;25.380;2023-05-20T00:42:33;9.68;;;7.13;;
40849;SDS011;26571;41.610;25.380;2023-05-20T00:44:58;8.82;;;7.93;;
40849;SDS011;26571;41.610;25.380;2023-05-20T00:47:28;7.32;;;6.63;;
40849;SDS011;26571;41.610;25.380;2023-05-20T00:49:56;8.23;;;7.43;;
40849;SDS011;26571;41.610;25.380;2023-05-20T00:52:21;6.95;;;6.20;;
40849;SDS011;26571;41.610;25.380;2023-05-20T00:54:48;7.38;;;6.63;;
40849;SDS011;26571;41.610;25.380;2023-05-20T00:57:15;6.80;;;6.13;;
40849;SDS011;26571;41.610;25.380;2023-05-20T00:59:41;9.65;;;8.68;;
40849;SDS011;26571;41.610;25.380;2023-05-20T01:02:06;7.97;;;7.28;;
40849;SDS011;26571;41.610;25.380;2023-05-20T01:04:32;6.45;;;5.90;;
40849;SDS011;26571;41.610;25.380;2023-05-20T01:06:58;8.05;;;7.25;;
40849;SDS011;26571;41.610;25.380;2023-05-20T01:09:26;7.20;;;6.63;;
40849;SDS011;26571;41.610;25.380;2023-05-20T01:11:55;7.78;;;6.95;;
40849;SDS011;26571;41.610;25.380;2023-05-20T01:14:34;8.05;;;7.25;;
40849;SDS011;26571;41.610;25.380;2023-05-20T01:17:02;7.57;;;6.70;;
40849;SDS011;26571;41.610;25.380;2023-05-20T01:22:09;8.45;;;7.40;;
40849;SDS011;26571;41.610;25.380;2023-05-20T01:27:17;7.75;;;7.05;;
40849;SDS011;26571;41.610;25.380;2023-05-20T01:29:44;8.30;;;7.25;;
40849;SDS011;26571;41.610;25.380;2023-05-20T01:32:22;8.38;;;7.57;;
40849;SDS011;26571;41.610;25.380;2023-05-20T01:34:54;9.07;;;7.55;;
40849;SDS011;26571;41.610;25.380;2023-05-20T01:37:21;8.65;;;7.72;;
40849;SDS011;26571;41.610;25.380;2023-05-20T01:39:49;8.95;;;8.05;;
40849;SDS011;26571;41.610;25.380;2023-05-20T01:42:15;7.88;;;7.18;;
40849;SDS011;26571;41.610;25.380;2023-05-20T01:44:42;9.43;;;7.25;;
40849;SDS011;26571;41.610;25.380;2023-05-20T01:47:07;8.75;;;7.32;;
40849;SDS011;26571;41.610;25.380;2023-05-20T01:49:33;7.65;;;6.90;;
40849;SDS011;26571;41.610;25.380;2023-05-20T01:51:58;7.53;;;6.57;;
40849;SDS011;26571;41.610;25.380;2023-05-20T01:54:24;7.07;;;6.43;;
40849;SDS011;26571;41.610;25.380;2023-05-20T01:56:50;8.82;;;7.15;;
40849;SDS011;26571;41.610;25.380;2023-05-20T01:59:15;10.45;;;7.70;;
40849;SDS011;26571;41.610;25.380;2023-05-20T02:01:41;7.50;;;6.82;;
40849;SDS011;26571;41.610;25.380;2023-05-20T02:04:06;6.75;;;6.13;;
40849;SDS011;26571;41.610;25.380;2023-05-20T02:06:32;6.53;;;6.00;;
40849;SDS011;26571;41.610;25.380;2023-05-20T02:08:57;5.60;;;5.10;;
40849;SDS011;26571;41.610;25.380;2023-05-20T02:11:22;6.00;;;5.57;;
40849;SDS011;26571;41.610;25.380;2023-05-20T02:13:48;7.47;;;6.55;;
40849;SDS011;26571;41.610;25.380;2023-05-20T02:16:14;7.30;;;6.70;;
40849;SDS011;26571;41.610;25.380;2023-05-20T02:18:40;6.40;;;5.85;;
40849;SDS011;26571;41.610;25.380;2023-05-20T02:21:06;6.30;;;5.82;;
40849;SDS011;26571;41.610;25.380;2023-05-20T02:23:32;5.55;;;5.15;;
40849;SDS011;26571;41.610;25.380;2023-05-20T02:25:58;6.28;;;5.68;;
40849;SDS011;26571;41.610;25.380;2023-05-20T02:28:23;5.88;;;5.22;;
40849;SDS011;26571;41.610;25.380;2023-05-20T02:30:49;5.70;;;5.30;;
40849;SDS011;26571;41.610;25.380;2023-05-20T02:33:17;5.80;;;5.40;;
40849;SDS011;26571;41.610;25.380;2023-05-20T02:35:43;5.53;;;5.07;;
40849;SDS011;26571;41.610;25.380;2023-05-20T02:38:11;6.70;;;6.00;;
40849;SDS011;26571;41.610;25.380;2023-05-20T02:40:37;5.25;;;4.95;;
40849;SDS011;26571;41.610;25.380;2023-05-20T02:43:02;5.40;;;5.05;;
40849;SDS011;26571;41.610;25.380;2023-05-20T02:45:28;6.95;;;6.38;;
40849;SDS011;26571;41.610;25.380;2023-05-20T02:47:54;6.55;;;6.07;;
40849;SDS011;26571;41.610;25.380;2023-05-20T02:50:19;5.72;;;5.32;;
40849;SDS011;26571;41.610;25.380;2023-05-20T02:52:44;5.00;;;4.70;;
40849;SDS011;26571;41.610;25.380;2023-05-20T02:55:11;6.97;;;6.30;;
40849;SDS011;26571;41.610;25.380;2023-05-20T02:57:36;7.00;;;6.55;;
40849;SDS011;26571;41.610;25.380;2023-05-20T03:00:03;6.75;;;6.25;;
40849;SDS011;26571;41.610;25.380;2023-05-20T03:02:34;6.20;;;5.68;;
40849;SDS011;26571;41.610;25.380;2023-05-20T03:05:00;7.35;;;5.63;;
40849;SDS011;26571;41.610;25.380;2023-05-20T03:07:26;6.05;;;5.45;;
40849;SDS011;26571;41.610;25.380;2023-05-20T03:09:52;7.75;;;5.53;;
40849;SDS011;26571;41.610;25.380;2023-05-20T03:12:17;5.57;;;5.20;;
40849;SDS011;26571;41.610;25.380;2023-05-20T03:14:43;5.63;;;5.13;;
40849;SDS011;26571;41.610;25.380;2023-05-20T03:17:08;5.63;;;5.22;;
40849;SDS011;26571;41.610;25.380;2023-05-20T03:19:35;5.38;;;5.07;;
40849;SDS011;26571;41.610;25.380;2023-05-20T03:22:01;5.22;;;4.82;;
40849;SDS011;26571;41.610;25.380;2023-05-20T03:24:27;9.77;;;6.32;;
40849;SDS011;26571;41.610;25.380;2023-05-20T03:26:52;6.80;;;6.07;;
40849;SDS011;26571;41.610;25.380;2023-05-20T03:29:18;8.32;;;6.15;;
40849;SDS011;26571;41.610;25.380;2023-05-20T03:31:43;6.78;;;5.95;;
40849;SDS011;26571;41.610;25.380;2023-05-20T03:34:09;5.55;;;5.15;;
40849;SDS011;26571;41.610;25.380;2023-05-20T03:36:35;5.13;;;4.82;;
40849;SDS011;26571;41.610;25.380;2023-05-20T03:39:00;8.25;;;4.65;;
40849;SDS011;26571;41.610;25.380;2023-05-20T03:41:26;4.68;;;4.38;;
40849;SDS011;26571;41.610;25.380;2023-05-20T03:43:52;5.47;;;4.97;;
40849;SDS011;26571;41.610;25.380;2023-05-20T03:46:17;4.38;;;4.07;;
40849;SDS011;26571;41.610;25.380;2023-05-20T03:48:42;3.60;;;3.42;;
40849;SDS011;26571;41.610;25.380;2023-05-20T03:51:08;3.47;;;3.28;;
40849;SDS011;26571;41.610;25.380;2023-05-20T03:53:33;2.75;;;2.65;;
40849;SDS011;26571;41.610;25.380;2023-05-20T03:55:59;2.88;;;2.78;;
40849;SDS011;26571;41.610;25.380;2023-05-20T03:58:25;2.97;;;2.78;;
40849;SDS011;26571;41.610;25.380;2023-05-20T04:00:52;3.15;;;2.85;;
40849;SDS011;26571;41.610;25.380;2023-05-20T04:03:18;2.80;;;2.67;;
40849;SDS011;26571;41.610;25.380;2023-05-20T04:05:43;2.38;;;2.28;;
40849;SDS011;26571;41.610;25.380;2023-05-20T04:08:09;2.85;;;2.65;;
40849;SDS011;26571;41.610;25.380;2023-05-20T04:10:37;4.00;;;2.90;;
40849;SDS011;26571;41.610;25.380;2023-05-20T04:13:05;3.22;;;2.92;;
40849;SDS011;26571;41.610;25.380;2023-05-20T04:15:33;2.38;;;2.20;;
40849;SDS011;26571;41.610;25.380;2023-05-20T04:17:59;2.90;;;2.00;;
40849;SDS011;26571;41.610;25.380;2023-05-20T04:20:25;2.72;;;2.25;;
40849;SDS011;26571;41.610;25.380;2023-05-20T04:22:50;1.85;;;1.75;;
40849;SDS011;26571;41.610;25.380;2023-05-20T04:25:18;2.10;;;2.00;;
40849;SDS011;26571;41.610;25.380;2023-05-20T04:27:43;2.23;;;1.63;;
40849;SDS011;26571;41.610;25.380;2023-05-20T04:30:09;1.60;;;1.50;;
40849;SDS011;26571;41.610;25.380;2023-05-20T04:32:35;2.67;;;2.30;;
40849;SDS011;26571;41.610;25.380;2023-05-20T04:35:00;1.63;;;1.53;;
40849;SDS011;26571;41.610;25.380;2023-05-20T04:37:26;1.67;;;1.53;;
40849;SDS011;26571;41.610;25.380;2023-05-20T04:39:52;1.73;;;1.63;;
40849;SDS011;26571;41.610;25.380;2023-05-20T04:42:18;2.33;;;2.23;;
40849;SDS011;26571;41.610;25.380;2023-05-20T04:44:45;10.40;;;5.70;;
40849;SDS011;26571;41.610;25.380;2023-05-20T04:47:12;2.70;;;2.50;;
40849;SDS011;26571;41.610;25.380;2023-05-20T04:49:37;2.53;;;2.42;;
40849;SDS011;26571;41.610;25.380;2023-05-20T04:52:03;1.63;;;1.53;;
40849;SDS011;26571;41.610;25.380;2023-05-20T04:54:29;2.20;;;1.93;;
40849;SDS011;26571;41.610;25.380;2023-05-20T04:56:56;1.83;;;1.73;;
40849;SDS011;26571;41.610;25.380;2023-05-20T04:59:22;2.23;;;2.13;;
40849;SDS011;26571;41.610;25.380;2023-05-20T05:01:47;1.60;;;1.50;;
40849;SDS011;26571;41.610;25.380;2023-05-20T05:04:13;1.47;;;1.40;;
40849;SDS011;26571;41.610;25.380;2023-05-20T05:06:38;2.33;;;1.77;;
40849;SDS011;26571;41.610;25.380;2023-05-20T05:09:04;1.83;;;1.73;;
40849;SDS011;26571;41.610;25.380;2023-05-20T05:11:29;1.93;;;1.83;;
40849;SDS011;26571;41.610;25.380;2023-05-20T05:13:55;4.47;;;2.30;;
40849;SDS011;26571;41.610;25.380;2023-05-20T05:16:20;2.90;;;2.70;;
40849;SDS011;26571;41.610;25.380;2023-05-20T05:18:46;4.57;;;2.20;;
40849;SDS011;26571;41.610;25.380;2023-05-20T05:21:11;2.70;;;2.13;;
40849;SDS011;26571;41.610;25.380;2023-05-20T05:23:36;3.33;;;2.60;;
40849;SDS011;26571;41.610;25.380;2023-05-20T05:26:02;3.07;;;2.17;;
40849;SDS011;26571;41.610;25.380;2023-05-20T05:28:27;3.33;;;3.13;;
40849;SDS011;26571;41.610;25.380;2023-05-20T05:30:53;1.97;;;1.87;;
40849;SDS011;26571;41.610;25.380;2023-05-20T05:33:20;2.63;;;2.42;;
40849;SDS011;26571;41.610;25.380;2023-05-20T05:35:46;3.72;;;2.47;;
40849;SDS011;26571;41.610;25.380;2023-05-20T05:38:11;4.82;;;2.50;;
40849;SDS011;26571;41.610;25.380;2023-05-20T05:40:37;2.78;;;2.53;;
40849;SDS011;26571;41.610;25.380;2023-05-20T05:43:02;3.17;;;2.63;;
40849;SDS011;26571;41.610;25.380;2023-05-20T05:45:28;3.97;;;2.60;;
40849;SDS011;26571;41.610;25.380;2023-05-20T05:47:54;2.97;;;2.77;;
40849;SDS011;26571;41.610;25.380;2023-05-20T05:50:19;3.03;;;2.93;;
40849;SDS011;26571;41.610;25.380;2023-05-20T05:52:44;2.50;;;2.30;;
40849;SDS011;26571;41.610;25.380;2023-05-20T05:55:10;5.97;;;3.40;;
40849;SDS011;26571;41.610;25.380;2023-05-20T05:57:36;5.03;;;3.37;;
40849;SDS011;26571;41.610;25.380;2023-05-20T06:00:02;3.40;;;3.10;;
40849;SDS011;26571;41.610;25.380;2023-05-20T06:02:28;2.67;;;2.47;;
40849;SDS011;26571;41.610;25.380;2023-05-20T06:04:54;2.67;;;2.47;;
40849;SDS011;26571;41.610;25.380;2023-05-20T06:07:19;3.50;;;3.27;;
40849;SDS011;26571;41.610;25.380;2023-05-20T06:09:45;2.93;;;2.67;;
40849;SDS011;26571;41.610;25.380;2023-05-20T06:12:11;3.30;;;3.10;;
40849;SDS011;26571;41.610;25.380;2023-05-20T06:14:36;3.43;;;3.13;;
40849;SDS011;26571;41.610;25.380;2023-05-20T06:17:02;3.87;;;2.57;;
40849;SDS011;26571;41.610;25.380;2023-05-20T06:19:28;3.80;;;2.75;;
40849;SDS011;26571;41.610;25.380;2023-05-20T06:21:53;2.80;;;2.60;;
40849;SDS011;26571;41.610;25.380;2023-05-20T06:24:20;2.70;;;2.35;;
40849;SDS011;26571;41.610;25.380;2023-05-20T06:26:45;4.03;;;2.33;;
40849;SDS011;26571;41.610;25.380;2023-05-20T06:29:10;4.30;;;2.57;;
40849;SDS011;26571;41.610;25.380;2023-05-20T06:31:36;3.53;;;2.20;;
40849;SDS011;26571;41.610;25.380;2023-05-20T06:34:01;4.23;;;2.90;;
40849;SDS011;26571;41.610;25.380;2023-05-20T06:36:27;3.37;;;2.43;;
40849;SDS011;26571;41.610;25.380;2023-05-20T06:38:53;3.90;;;2.73;;
40849;SDS011;26571;41.610;25.380;2023-05-20T06:41:18;3.60;;;1.73;;
40849;SDS011;26571;41.610;25.380;2023-05-20T06:43:43;2.83;;;1.97;;
40849;SDS011;26571;41.610;25.380;2023-05-20T06:46:09;4.20;;;2.50;;
40849;SDS011;26571;41.610;25.380;2023-05-20T06:48:34;5.20;;;1.63;;
40849;SDS011;26571;41.610;25.380;2023-05-20T06:51:00;2.23;;;2.00;;
40849;SDS011;26571;41.610;25.380;2023-05-20T06:53:25;1.90;;;1.80;;
40849;SDS011;26571;41.610;25.380;2023-05-20T06:55:52;2.93;;;1.97;;
40849;SDS011;26571;41.610;25.380;2023-05-20T06:58:19;5.20;;;2.28;;
40849;SDS011;26571;41.610;25.380;2023-05-20T07:00:45;2.77;;;1.67;;
40849;SDS011;26571;41.610;25.380;2023-05-20T07:03:11;3.15;;;2.85;;
40849;SDS011;26571;41.610;25.380;2023-05-20T07:05:36;2.23;;;2.13;;
40849;SDS011;26571;41.610;25.380;2023-05-20T07:08:02;2.40;;;1.53;;
40849;SDS011;26571;41.610;25.380;2023-05-20T07:10:28;2.50;;;1.90;;
40849;SDS011;26571;41.610;25.380;2023-05-20T07:12:53;2.22;;;2.03;;
40849;SDS011;26571;41.610;25.380;2023-05-20T07:15:19;4.57;;;2.00;;
40849;SDS011;26571;41.610;25.380;2023-05-20T07:17:44;4.57;;;1.63;;
40849;SDS011;26571;41.610;25.380;2023-05-20T07:20:10;4.90;;;2.83;;
40849;SDS011;26571;41.610;25.380;2023-05-20T07:22:36;3.22;;;1.48;;
40849;SDS011;26571;41.610;25.380;2023-05-20T07:25:01;1.80;;;1.70;;
40849;SDS011;26571;41.610;25.380;2023-05-20T07:27:27;2.87;;;1.67;;
40849;SDS011;26571;41.610;25.380;2023-05-20T07:29:52;1.90;;;1.60;;
40849;SDS011;26571;41.610;25.380;2023-05-20T07:32:18;2.63;;;1.53;;
40849;SDS011;26571;41.610;25.380;2023-05-20T07:34:43;1.63;;;1.37;;
40849;SDS011;26571;41.610;25.380;2023-05-20T07:37:09;2.17;;;1.97;;
40849;SDS011;26571;41.610;25.380;2023-05-20T07:39:36;2.50;;;1.95;;
40849;SDS011;26571;41.610;25.380;2023-05-20T07:42:02;2.10;;;2.00;;
40849;SDS011;26571;41.610;25.380;2023-05-20T07:44:28;7.03;;;2.47;;
40849;SDS011;26571;41.610;25.380;2023-05-20T07:46:53;1.60;;;1.50;;
40849;SDS011;26571;41.610;25.380;2023-05-20T07:49:19;2.70;;;1.80;;
40849;SDS011;26571;41.610;25.380;2023-05-20T07:51:44;1.97;;;1.50;;
40849;SDS011;26571;41.610;25.380;2023-05-20T07:54:10;6.27;;;2.17;;
40849;SDS011;26571;41.610;25.380;2023-05-20T07:56:36;2.33;;;1.87;;
40849;SDS011;26571;41.610;25.380;2023-05-20T07:59:02;2.40;;;1.43;;
40849;SDS011;26571;41.610;25.380;2023-05-20T08:01:27;3.03;;;1.53;;
40849;SDS011;26571;41.610;25.380;2023-05-20T08:03:53;2.27;;;1.63;;
40849;SDS011;26571;41.610;25.380;2023-05-20T08:06:19;1.83;;;1.73;;
40849;SDS011;26571;41.610;25.380;2023-05-20T08:08:45;2.30;;;2.08;;
40849;SDS011;26571;41.610;25.380;2023-05-20T08:11:11;1.65;;;1.55;;
40849;SDS011;26571;41.610;25.380;2023-05-20T08:13:37;1.77;;;1.67;;
40849;SDS011;26571;41.610;25.380;2023-05-20T08:16:02;2.27;;;1.83;;
40849;SDS011;26571;41.610;25.380;2023-05-20T08:18:29;2.60;;;2.33;;
40849;SDS011;26571;41.610;25.380;2023-05-20T08:23:22;2.42;;;2.15;;
40849;SDS011;26571;41.610;25.380;2023-05-20T08:25:48;2.70;;;2.47;;
40849;SDS011;26571;41.610;25.380;2023-05-20T08:28:14;2.17;;;1.80;;
40849;SDS011;26571;41.610;25.380;2023-05-20T08:30:39;1.97;;;1.87;;
40849;SDS011;26571;41.610;25.380;2023-05-20T08:33:05;4.70;;;2.20;;
40849;SDS011;26571;41.610;25.380;2023-05-20T08:35:31;2.45;;;1.77;;
40849;SDS011;26571;41.610;25.380;2023-05-20T08:37:57;6.63;;;3.67;;
40849;SDS011;26571;41.610;25.380;2023-05-20T08:40:22;2.93;;;2.63;;
40849;SDS011;26571;41.610;25.380;2023-05-20T08:45:17;8.60;;;2.50;;
40849;SDS011;26571;41.610;25.380;2023-05-20T08:47:44;3.53;;;3.22;;
40849;SDS011;26571;41.610;25.380;2023-05-20T08:50:10;6.78;;;3.33;;
40849;SDS011;26571;41.610;25.380;2023-05-20T08:55:06;3.05;;;2.58;;
40849;SDS011;26571;41.610;25.380;2023-05-20T08:57:33;3.80;;;3.33;;
40849;SDS011;26571;41.610;25.380;2023-05-20T09:00:01;3.33;;;3.03;;
40849;SDS011;26571;41.610;25.380;2023-05-20T09:02:36;4.60;;;2.42;;
40849;SDS011;26571;41.610;25.380;2023-05-20T09:05:02;2.83;;;2.63;;
40849;SDS011;26571;41.610;25.380;2023-05-20T09:07:29;3.35;;;2.33;;
40849;SDS011;26571;41.610;25.380;2023-05-20T09:09:54;2.37;;;2.20;;
40849;SDS011;26571;41.610;25.380;2023-05-20T09:12:21;2.38;;;2.22;;
40849;SDS011;26571;41.610;25.380;2023-05-20T09:14:46;2.25;;;2.15;;
40849;SDS011;26571;41.610;25.380;2023-05-20T09:17:12;4.93;;;2.63;;
40849;SDS011;26571;41.610;25.380;2023-05-20T09:19:37;2.85;;;2.60;;
40849;SDS011;26571;41.610;25.380;2023-05-20T09:22:03;4.07;;;3.08;;
40849;SDS011;26571;41.610;25.380;2023-05-20T09:24:29;4.57;;;2.63;;
40849;SDS011;26571;41.610;25.380;2023-05-20T09:26:55;4.65;;;3.10;;
40849;SDS011;26571;41.610;25.380;2023-05-20T09:29:21;3.63;;;2.30;;
40849;SDS011;26571;41.610;25.380;2023-05-20T09:31:47;2.90;;;2.70;;
40849;SDS011;26571;41.610;25.380;2023-05-20T09:34:14;4.13;;;3.15;;
40849;SDS011;26571;41.610;25.380;2023-05-20T09:36:41;2.38;;;2.13;;
40849;SDS011;26571;41.610;25.380;2023-05-20T09:39:08;3.42;;;3.13;;
40849;SDS011;26571;41.610;25.380;2023-05-20T09:41:39;2.97;;;2.78;;
40849;SDS011;26571;41.610;25.380;2023-05-20T09:44:10;4.53;;;3.05;;
40849;SDS011;26571;41.610;25.380;2023-05-20T09:46:36;2.97;;;2.75;;
40849;SDS011;26571;41.610;25.380;2023-05-20T09:49:03;3.17;;;2.88;;
40849;SDS011;26571;41.610;25.380;2023-05-20T09:51:32;3.70;;;3.05;;
40849;SDS011;26571;41.610;25.380;2023-05-20T09:53:58;2.70;;;2.53;;
40849;SDS011;26571;41.610;25.380;2023-05-20T09:56:27;2.60;;;2.40;;
40849;SDS011;26571;41.610;25.380;2023-05-20T09:58:53;3.90;;;2.45;;
40849;SDS011;26571;41.610;25.380;2023-05-20T10:01:22;2.85;;;2.58;;
40849;SDS011;26571;41.610;25.380;2023-05-20T10:03:49;8.70;;;3.65;;
40849;SDS011;26571;41.610;25.380;2023-05-20T10:12:00;4.50;;;3.25;;
40849;SDS011;26571;41.610;25.380;2023-05-20T10:19:45;3.58;;;2.25;;
40849;SDS011;26571;41.610;25.380;2023-05-20T10:22:11;4.22;;;3.60;;
40849;SDS011;26571;41.610;25.380;2023-05-20T10:24:38;4.60;;;2.90;;
40849;SDS011;26571;41.610;25.380;2023-05-20T10:27:09;5.10;;;3.00;;
40849;SDS011;26571;41.610;25.380;2023-05-20T10:35:02;3.72;;;2.75;;
40849;SDS011;26571;41.610;25.380;2023-05-20T10:37:30;3.40;;;2.90;;
40849;SDS011;26571;41.610;25.380;2023-05-20T10:40:02;3.28;;;3.08;;
40849;SDS011;26571;41.610;25.380;2023-05-20T10:42:29;3.42;;;2.78;;
40849;SDS011;26571;41.610;25.380;2023-05-20T10:44:55;2.13;;;1.85;;
40849;SDS011;26571;41.610;25.380;2023-05-20T10:47:20;3.60;;;3.28;;
40849;SDS011;26571;41.610;25.380;2023-05-20T10:49:46;3.97;;;2.33;;
40849;SDS011;26571;41.610;25.380;2023-05-20T10:52:20;3.53;;;3.22;;
40849;SDS011;26571;41.610;25.380;2023-05-20T10:57:17;3.38;;;2.63;;
40849;SDS011;26571;41.610;25.380;2023-05-20T10:59:43;2.65;;;2.45;;
40849;SDS011;26571;41.610;25.380;2023-05-20T11:02:09;5.28;;;3.17;;
40849;SDS011;26571;41.610;25.380;2023-05-20T11:04:36;3.70;;;2.80;;
40849;SDS011;26571;41.610;25.380;2023-05-20T11:07:02;4.10;;;2.57;;
40849;SDS011;26571;41.610;25.380;2023-05-20T11:09:28;4.03;;;3.50;;
40849;SDS011;26571;41.610;25.380;2023-05-20T11:14:20;2.63;;;2.05;;
40849;SDS011;26571;41.610;25.380;2023-05-20T11:16:49;5.68;;;3.55;;
40849;SDS011;26571;41.610;25.380;2023-05-20T11:19:15;6.65;;;2.90;;
40849;SDS011;26571;41.610;25.380;2023-05-20T11:21:43;3.83;;;2.53;;
40849;SDS011;26571;41.610;25.380;2023-05-20T11:24:12;2.92;;;2.72;;
40849;SDS011;26571;41.610;25.380;2023-05-20T11:26:38;2.90;;;2.70;;
40849;SDS011;26571;41.610;25.380;2023-05-20T11:29:04;2.90;;;1.97;;
40849;SDS011;26571;41.610;25.380;2023-05-20T11:31:30;4.43;;;3.40;;
40849;SDS011;26571;41.610;25.380;2023-05-20T11:33:58;2.45;;;1.73;;
40849;SDS011;26571;41.610;25.380;2023-05-20T11:36:25;3.55;;;2.25;;
40849;SDS011;26571;41.610;25.380;2023-05-20T11:38:52;2.28;;;2.08;;
40849;SDS011;26571;41.610;25.380;2023-05-20T11:41:22;3.87;;;2.43;;
40849;SDS011;26571;41.610;25.380;2023-05-20T11:43:57;2.05;;;1.88;;
40849;SDS011;26571;41.610;25.380;2023-05-20T11:46:23;2.03;;;1.90;;
40849;SDS011;26571;41.610;25.380;2023-05-20T11:48:52;3.20;;;1.97;;
40849;SDS011;26571;41.610;25.380;2023-05-20T11:51:28;3.20;;;2.83;;
40849;SDS011;26571;41.610;25.380;2023-05-20T11:54:00;6.03;;;2.97;;
40849;SDS011;26571;41.610;25.380;2023-05-20T11:56:27;2.42;;;2.10;;
40849;SDS011;26571;41.610;25.380;2023-05-20T11:58:55;6.07;;;2.75;;
40849;SDS011;26571;41.610;25.380;2023-05-20T12:01:22;2.33;;;2.08;;
40849;SDS011;26571;41.610;25.380;2023-05-20T12:03:48;4.07;;;2.30;;
40849;SDS011;26571;41.610;25.380;2023-05-20T12:06:13;1.60;;;1.50;;
40849;SDS011;26571;41.610;25.380;2023-05-20T12:08:38;2.27;;;2.07;;
40849;SDS011;26571;41.610;25.380;2023-05-20T12:11:04;4.63;;;2.45;;
40849;SDS011;26571;41.610;25.380;2023-05-20T12:13:30;2.97;;;1.83;;
40849;SDS011;26571;41.610;25.380;2023-05-20T12:15:55;2.43;;;2.03;;
40849;SDS011;26571;41.610;25.380;2023-05-20T12:18:21;3.87;;;2.20;;
40849;SDS011;26571;41.610;25.380;2023-05-20T12:20:46;4.80;;;1.90;;
40849;SDS011;26571;41.610;25.380;2023-05-20T12:23:12;3.15;;;2.08;;
40849;SDS011;26571;41.610;25.380;2023-05-20T12:25:37;1.90;;;1.70;;
40849;SDS011;26571;41.610;25.380;2023-05-20T12:28:02;4.63;;;2.53;;
40849;SDS011;26571;41.610;25.380;2023-05-20T12:30:28;3.87;;;2.07;;
40849;SDS011;26571;41.610;25.380;2023-05-20T12:32:53;2.20;;;1.80;;
40849;SDS011;26571;41.610;25.380;2023-05-20T12:35:34;2.03;;;1.90;;
40849;SDS011;26571;41.610;25.380;2023-05-20T12:38:01;3.97;;;2.83;;
40849;SDS011;26571;41.610;25.380;2023-05-20T12:40:26;1.95;;;1.75;;
40849;SDS011;26571;41.610;25.380;2023-05-20T12:42:52;4.00;;;1.98;;
40849;SDS011;26571;41.610;25.380;2023-05-20T12:45:18;4.68;;;3.20;;
40849;SDS011;26571;41.610;25.380;2023-05-20T12:47:43;2.83;;;2.03;;
40849;SDS011;26571;41.610;25.380;2023-05-20T12:50:09;5.93;;;1.65;;
40849;SDS011;26571;41.610;25.380;2023-05-20T12:52:35;2.58;;;2.35;;
40849;SDS011;26571;41.610;25.380;2023-05-20T12:55:00;8.27;;;1.70;;
40849;SDS011;26571;41.610;25.380;2023-05-20T12:57:25;6.65;;;1.65;;
40849;SDS011;26571;41.610;25.380;2023-05-20T12:59:51;2.40;;;2.20;;
40849;SDS011;26571;41.610;25.380;2023-05-20T13:02:17;1.98;;;1.80;;
40849;SDS011;26571;41.610;25.380;2023-05-20T13:04:43;2.37;;;1.90;;
40849;SDS011;26571;41.610;25.380;2023-05-20T13:07:08;2.63;;;1.55;;
40849;SDS011;26571;41.610;25.380;2023-05-20T13:09:34;1.92;;;1.65;;
40849;SDS011;26571;41.610;25.380;2023-05-20T13:11:59;4.15;;;2.42;;
40849;SDS011;26571;41.610;25.380;2023-05-20T13:14:25;4.10;;;1.67;;
40849;SDS011;26571;41.610;25.380;2023-05-20T13:16:51;1.95;;;1.63;;
40849;SDS011;26571;41.610;25.380;2023-05-20T13:19:20;2.08;;;1.98;;
40849;SDS011;26571;41.610;25.380;2023-05-20T13:21:47;8.45;;;1.52;;
40849;SDS011;26571;41.610;25.380;2023-05-20T13:24:16;2.45;;;1.60;;
40849;SDS011;26571;41.610;25.380;2023-05-20T13:26:42;4.82;;;1.70;;
40849;SDS011;26571;41.610;25.380;2023-05-20T13:29:08;3.47;;;2.08;;
40849;SDS011;26571;41.610;25.380;2023-05-20T13:31:34;2.25;;;1.67;;
40849;SDS011;26571;41.610;25.380;2023-05-20T13:33:59;2.08;;;1.48;;
40849;SDS011;26571;41.610;25.380;2023-05-20T13:36:25;3.30;;;2.00;;
40849;SDS011;26571;41.610;25.380;2023-05-20T13:38:51;3.70;;;2.13;;
40849;SDS011;26571;41.610;25.380;2023-05-20T13:41:17;2.15;;;1.42;;
40849;SDS011;26571;41.610;25.380;2023-05-20T13:43:42;4.47;;;3.33;;
40849;SDS011;26571;41.610;25.380;2023-05-20T13:46:07;7.05;;;3.45;;
40849;SDS011;26571;41.610;25.380;2023-05-20T13:48:33;4.38;;;4.00;;
40849;SDS011;26571;41.610;25.380;2023-05-20T13:50:58;11.93;;;3.38;;
40849;SDS011;26571;41.610;25.380;2023-05-20T13:53:25;3.45;;;2.45;;
40849;SDS011;26571;41.610;25.380;2023-05-20T13:55:52;3.25;;;1.90;;
40849;SDS011;26571;41.610;25.380;2023-05-20T13:58:17;1.85;;;1.75;;
40849;SDS011;26571;41.610;25.380;2023-05-20T14:00:43;2.83;;;2.08;;
40849;SDS011;26571;41.610;25.380;2023-05-20T14:03:08;2.97;;;1.85;;
40849;SDS011;26571;41.610;25.380;2023-05-20T14:05:34;1.33;;;1.23;;
40849;SDS011;26571;41.610;25.380;2023-05-20T14:08:00;1.65;;;1.45;;
40849;SDS011;26571;41.610;25.380;2023-05-20T14:10:26;2.35;;;2.05;;
40849;SDS011;26571;41.610;25.380;2023-05-20T14:12:52;3.33;;;1.70;;
40849;SDS011;26571;41.610;25.380;2023-05-20T14:15:18;5.97;;;1.80;;
40849;SDS011;26571;41.610;25.380;2023-05-20T14:17:44;1.90;;;1.45;;
40849;SDS011;26571;41.610;25.380;2023-05-20T14:20:10;3.25;;;2.30;;
40849;SDS011;26571;41.610;25.380;2023-05-20T14:22:35;3.78;;;2.30;;
40849;SDS011;26571;41.610;25.380;2023-05-20T14:25:01;4.38;;;1.60;;
40849;SDS011;26571;41.610;25.380;2023-05-20T14:27:28;1.77;;;1.57;;
40849;SDS011;26571;41.610;25.380;2023-05-20T14:29:54;1.65;;;1.55;;
40849;SDS011;26571;41.610;25.380;2023-05-20T14:32:19;10.13;;;2.33;;
40849;SDS011;26571;41.610;25.380;2023-05-20T14:34:45;1.70;;;1.00;;
40849;SDS011;26571;41.610;25.380;2023-05-20T14:37:10;1.17;;;1.08;;
40849;SDS011;26571;41.610;25.380;2023-05-20T14:39:36;3.83;;;1.80;;
40849;SDS011;26571;41.610;25.380;2023-05-20T14:42:01;2.83;;;1.60;;
40849;SDS011;26571;41.610;25.380;2023-05-20T14:44:28;3.05;;;1.65;;
40849;SDS011;26571;41.610;25.380;2023-05-20T14:46:54;5.68;;;1.50;;
40849;SDS011;26571;41.610;25.380;2023-05-20T14:49:19;1.40;;;1.15;;
40849;SDS011;26571;41.610;25.380;2023-05-20T14:51:45;3.53;;;1.20;;
40849;SDS011;26571;41.610;25.380;2023-05-20T14:54:10;3.33;;;1.27;;
40849;SDS011;26571;41.610;25.380;2023-05-20T14:56:37;3.17;;;1.15;;
40849;SDS011;26571;41.610;25.380;2023-05-20T14:59:03;1.08;;;1.00;;
40849;SDS011;26571;41.610;25.380;2023-05-20T15:01:28;3.00;;;1.63;;